OAL114 LIPR-LGAV
Flight info
| Callsign | OAL114 |
|---|---|
| Flight time | 1h 31m |
| Altitude | 35000 |
| Route | ANC KAPPO TIGRA UL995 KRK UL53 PIKAD |
| Aircraft | B738/M-VGDW/C |
Departure
| Time | 2026-05-05 19:33 |
|---|---|
| Airport | Federico Fellini International Airport (LIPR) |
Arrival
| Time | 2026-05-05 21:05 |
|---|---|
| Airport | Athens Eleftherios Venizelos International Airport (LGAV) |
| Time | Latitude | Longitude | Altitude | Speed | Heading |
|---|---|---|---|---|---|
| 2026-05-05 19:03 | 44.02328 | 12.61726 | 46 ft | 0 kts | 38° |
| 2026-05-05 19:18 | 44.02327 | 12.61725 | 46 ft | 2 kts | 38° |
| 2026-05-05 19:19 | 44.02314 | 12.61711 | 46 ft | 2 kts | 37° |
| 2026-05-05 19:19 | 44.02300 | 12.61699 | 45 ft | 2 kts | 15° |
| 2026-05-05 19:19 | 44.02284 | 12.61698 | 46 ft | 2 kts | 343° |
| 2026-05-05 19:19 | 44.02267 | 12.61701 | 43 ft | 2 kts | 2° |
| 2026-05-05 19:20 | 44.02251 | 12.61700 | 41 ft | 2 kts | 355° |
| 2026-05-05 19:20 | 44.02235 | 12.61703 | 42 ft | 2 kts | 338° |
| 2026-05-05 19:20 | 44.02221 | 12.61716 | 43 ft | 2 kts | 307° |
| 2026-05-05 19:20 | 44.02217 | 12.61724 | 44 ft | 0 kts | 307° |
| 2026-05-05 19:21 | 44.02219 | 12.61722 | 44 ft | 2 kts | 308° |
| 2026-05-05 19:22 | 44.02235 | 12.61694 | 42 ft | 5 kts | 308° |
| 2026-05-05 19:22 | 44.02261 | 12.61649 | 46 ft | 6 kts | 308° |
| 2026-05-05 19:22 | 44.02289 | 12.61599 | 45 ft | 7 kts | 307° |
| 2026-05-05 19:22 | 44.02303 | 12.61543 | 46 ft | 6 kts | 256° |
| 2026-05-05 19:23 | 44.02272 | 12.61499 | 46 ft | 6 kts | 218° |
| 2026-05-05 19:23 | 44.02237 | 12.61462 | 46 ft | 6 kts | 217° |
| 2026-05-05 19:23 | 44.02203 | 12.61425 | 46 ft | 6 kts | 219° |
| 2026-05-05 19:23 | 44.02180 | 12.61378 | 46 ft | 6 kts | 255° |
| 2026-05-05 19:24 | 44.02191 | 12.61324 | 46 ft | 6 kts | 301° |
| 2026-05-05 19:24 | 44.02215 | 12.61278 | 46 ft | 6 kts | 306° |
| 2026-05-05 19:24 | 44.02241 | 12.61230 | 46 ft | 7 kts | 308° |
| 2026-05-05 19:24 | 44.02272 | 12.61177 | 46 ft | 8 kts | 308° |
| 2026-05-05 19:25 | 44.02307 | 12.61114 | 46 ft | 9 kts | 308° |
| 2026-05-05 19:25 | 44.02348 | 12.61040 | 44 ft | 10 kts | 308° |
| 2026-05-05 19:25 | 44.02394 | 12.60958 | 46 ft | 11 kts | 307° |
| 2026-05-05 19:25 | 44.02443 | 12.60868 | 46 ft | 12 kts | 307° |
| 2026-05-05 19:26 | 44.02496 | 12.60772 | 46 ft | 13 kts | 307° |
| 2026-05-05 19:26 | 44.02550 | 12.60675 | 46 ft | 13 kts | 308° |
| 2026-05-05 19:26 | 44.02604 | 12.60579 | 46 ft | 12 kts | 308° |
| 2026-05-05 19:26 | 44.02656 | 12.60486 | 46 ft | 12 kts | 308° |
| 2026-05-05 19:27 | 44.02707 | 12.60394 | 46 ft | 12 kts | 308° |
| 2026-05-05 19:27 | 44.02757 | 12.60306 | 46 ft | 11 kts | 308° |
| 2026-05-05 19:27 | 44.02805 | 12.60219 | 46 ft | 11 kts | 308° |
| 2026-05-05 19:27 | 44.02835 | 12.60165 | 44 ft | 5 kts | 307° |
| 2026-05-05 19:28 | 44.02843 | 12.60123 | 46 ft | 5 kts | 259° |
| 2026-05-05 19:28 | 44.02824 | 12.60089 | 46 ft | 5 kts | 219° |
| 2026-05-05 19:28 | 44.02799 | 12.60063 | 46 ft | 4 kts | 217° |
| 2026-05-05 19:28 | 44.02775 | 12.60036 | 46 ft | 4 kts | 218° |
| 2026-05-05 19:29 | 44.02750 | 12.60010 | 47 ft | 4 kts | 218° |
| 2026-05-05 19:29 | 44.02724 | 12.59989 | 47 ft | 4 kts | 196° |
| 2026-05-05 19:29 | 44.02695 | 12.59995 | 47 ft | 4 kts | 155° |
| 2026-05-05 19:29 | 44.02671 | 12.60024 | 47 ft | 5 kts | 131° |
| 2026-05-05 19:30 | 44.02666 | 12.60033 | 47 ft | 0 kts | 129° |
| 2026-05-05 19:32 | 44.02654 | 12.60055 | 46 ft | 10 kts | 129° |
| 2026-05-05 19:32 | 44.02509 | 12.60309 | 45 ft | 68 kts | 128° |
| 2026-05-05 19:33 | 44.02081 | 12.61081 | 45 ft | 131 kts | 127° |
| 2026-05-05 19:33 | 44.01436 | 12.62261 | 316 ft | 161 kts | 128° |
| 2026-05-05 19:33 | 44.00751 | 12.63520 | 1070 ft | 170 kts | 131° |
| 2026-05-05 19:33 | 43.99864 | 12.64657 | 1832 ft | 175 kts | 149° |
| 2026-05-05 19:34 | 43.98834 | 12.65644 | 2527 ft | 185 kts | 150° |
| 2026-05-05 19:34 | 43.97753 | 12.66690 | 3054 ft | 198 kts | 149° |
| 2026-05-05 19:34 | 43.96590 | 12.67864 | 3405 ft | 215 kts | 149° |
| 2026-05-05 19:35 | 43.94272 | 12.70790 | 4257 ft | 250 kts | 116° |
| 2026-05-05 19:35 | 43.93749 | 12.73145 | 4842 ft | 257 kts | 118° |
| 2026-05-05 19:35 | 43.92765 | 12.75214 | 5394 ft | 263 kts | 129° |
| 2026-05-05 19:35 | 43.91700 | 12.77401 | 5864 ft | 279 kts | 125° |
| 2026-05-05 19:36 | 43.90671 | 12.79672 | 6583 ft | 283 kts | 124° |
| 2026-05-05 19:36 | 43.89636 | 12.82008 | 7390 ft | 286 kts | 123° |
| 2026-05-05 19:36 | 43.88604 | 12.84375 | 8113 ft | 288 kts | 123° |
| 2026-05-05 19:36 | 43.87559 | 12.86764 | 8810 ft | 291 kts | 123° |
| 2026-05-05 19:37 | 43.86503 | 12.89174 | 9523 ft | 294 kts | 123° |
| 2026-05-05 19:37 | 43.85432 | 12.91616 | 10202 ft | 298 kts | 123° |
| 2026-05-05 19:37 | 43.84705 | 12.93271 | 10394 ft | 310 kts | 123° |
| 2026-05-05 19:37 | 43.83542 | 12.95917 | 10558 ft | 332 kts | 123° |
| 2026-05-05 19:38 | 43.82304 | 12.98732 | 10750 ft | 351 kts | 123° |
| 2026-05-05 19:38 | 43.81020 | 13.01655 | 11254 ft | 358 kts | 123° |
| 2026-05-05 19:38 | 43.79292 | 13.05589 | 12114 ft | 363 kts | 123° |
| 2026-05-05 19:38 | 43.77973 | 13.08586 | 12754 ft | 367 kts | 123° |
| 2026-05-05 19:39 | 43.77068 | 13.10637 | 13200 ft | 370 kts | 123° |
| 2026-05-05 19:39 | 43.75728 | 13.13644 | 13865 ft | 374 kts | 125° |
| 2026-05-05 19:39 | 43.74263 | 13.16640 | 14526 ft | 378 kts | 127° |
| 2026-05-05 19:39 | 43.72734 | 13.19609 | 15237 ft | 381 kts | 128° |
| 2026-05-05 19:40 | 43.71174 | 13.22605 | 15938 ft | 385 kts | 128° |
| 2026-05-05 19:40 | 43.69603 | 13.25635 | 16604 ft | 389 kts | 128° |
| 2026-05-05 19:40 | 43.68023 | 13.28703 | 17220 ft | 393 kts | 128° |
| 2026-05-05 19:40 | 43.66434 | 13.31802 | 17813 ft | 397 kts | 128° |
| 2026-05-05 19:41 | 43.64828 | 13.34940 | 18385 ft | 402 kts | 128° |
| 2026-05-05 19:41 | 43.63208 | 13.38106 | 18911 ft | 405 kts | 128° |
| 2026-05-05 19:41 | 43.61579 | 13.41290 | 19462 ft | 407 kts | 128° |
| 2026-05-05 19:41 | 43.59936 | 13.44494 | 20006 ft | 410 kts | 128° |
| 2026-05-05 19:42 | 43.58271 | 13.47709 | 20535 ft | 412 kts | 129° |
| 2026-05-05 19:42 | 43.56497 | 13.50828 | 21020 ft | 415 kts | 132° |
| 2026-05-05 19:42 | 43.54662 | 13.53848 | 21509 ft | 417 kts | 133° |
| 2026-05-05 19:42 | 43.52768 | 13.56893 | 22004 ft | 420 kts | 133° |
| 2026-05-05 19:43 | 43.50857 | 13.59952 | 22485 ft | 423 kts | 133° |
| 2026-05-05 19:43 | 43.48933 | 13.63042 | 22962 ft | 426 kts | 133° |
| 2026-05-05 19:43 | 43.47000 | 13.66166 | 23437 ft | 429 kts | 133° |
| 2026-05-05 19:43 | 43.45060 | 13.69315 | 23857 ft | 432 kts | 133° |
| 2026-05-05 19:44 | 43.43112 | 13.72484 | 24197 ft | 435 kts | 133° |
| 2026-05-05 19:44 | 43.41148 | 13.75684 | 24526 ft | 439 kts | 133° |
| 2026-05-05 19:44 | 43.39169 | 13.78910 | 24857 ft | 443 kts | 133° |
| 2026-05-05 19:44 | 43.37172 | 13.82164 | 25193 ft | 447 kts | 133° |
| 2026-05-05 19:45 | 43.35184 | 13.85398 | 25524 ft | 450 kts | 133° |
| 2026-05-05 19:45 | 43.33157 | 13.88694 | 25847 ft | 453 kts | 133° |
| 2026-05-05 19:45 | 43.31113 | 13.92012 | 26156 ft | 457 kts | 133° |
| 2026-05-05 19:45 | 43.29052 | 13.95354 | 26474 ft | 460 kts | 133° |
| 2026-05-05 19:46 | 43.26979 | 13.98711 | 26792 ft | 463 kts | 133° |
| 2026-05-05 19:46 | 43.24886 | 14.02097 | 27084 ft | 466 kts | 133° |
| 2026-05-05 19:46 | 43.22777 | 14.05505 | 27384 ft | 469 kts | 133° |
| 2026-05-05 19:46 | 43.20658 | 14.08925 | 27677 ft | 472 kts | 133° |
| 2026-05-05 19:47 | 43.18521 | 14.12370 | 27963 ft | 475 kts | 134° |
| 2026-05-05 19:47 | 43.16365 | 14.15841 | 28244 ft | 478 kts | 134° |
| 2026-05-05 19:47 | 43.14199 | 14.19323 | 28520 ft | 481 kts | 134° |
| 2026-05-05 19:47 | 43.12046 | 14.22782 | 28796 ft | 484 kts | 134° |
| 2026-05-05 19:48 | 43.09853 | 14.26300 | 29059 ft | 487 kts | 134° |
| 2026-05-05 19:48 | 43.07645 | 14.29838 | 29322 ft | 490 kts | 134° |
| 2026-05-05 19:48 | 43.05430 | 14.33383 | 29575 ft | 492 kts | 134° |
| 2026-05-05 19:48 | 43.03195 | 14.36955 | 29817 ft | 495 kts | 134° |
| 2026-05-05 19:49 | 43.00949 | 14.40540 | 30051 ft | 498 kts | 134° |
| 2026-05-05 19:49 | 42.98693 | 14.44138 | 30308 ft | 499 kts | 134° |
| 2026-05-05 19:49 | 42.96432 | 14.47740 | 30651 ft | 497 kts | 134° |
| 2026-05-05 19:49 | 42.94184 | 14.51318 | 31029 ft | 495 kts | 134° |
| 2026-05-05 19:50 | 42.91968 | 14.54841 | 31336 ft | 495 kts | 134° |
| 2026-05-05 19:50 | 42.89719 | 14.58410 | 31604 ft | 496 kts | 134° |
| 2026-05-05 19:50 | 42.87468 | 14.61976 | 31890 ft | 495 kts | 134° |
| 2026-05-05 19:50 | 42.85217 | 14.65539 | 32206 ft | 494 kts | 135° |
| 2026-05-05 19:51 | 42.82972 | 14.69088 | 32509 ft | 494 kts | 135° |
| 2026-05-05 19:51 | 42.80722 | 14.72641 | 32774 ft | 494 kts | 135° |
| 2026-05-05 19:51 | 42.78477 | 14.76181 | 33057 ft | 494 kts | 135° |
| 2026-05-05 19:51 | 42.76254 | 14.79683 | 33343 ft | 493 kts | 135° |
| 2026-05-05 19:52 | 42.74013 | 14.83208 | 33626 ft | 493 kts | 135° |
| 2026-05-05 19:52 | 42.71765 | 14.86741 | 33888 ft | 493 kts | 135° |
| 2026-05-05 19:52 | 42.69518 | 14.90266 | 34119 ft | 493 kts | 135° |
| 2026-05-05 19:52 | 42.67271 | 14.93789 | 34376 ft | 492 kts | 135° |
| 2026-05-05 19:53 | 42.65030 | 14.97300 | 34639 ft | 490 kts | 135° |
| 2026-05-05 19:53 | 42.62794 | 15.00798 | 34891 ft | 489 kts | 135° |
| 2026-05-05 19:53 | 42.60561 | 15.04284 | 35017 ft | 491 kts | 135° |
| 2026-05-05 19:54 | 42.56059 | 15.11301 | 35008 ft | 492 kts | 135° |
| 2026-05-05 19:54 | 42.51579 | 15.18272 | 35005 ft | 488 kts | 135° |
| 2026-05-05 19:55 | 42.47148 | 15.25150 | 35007 ft | 486 kts | 135° |
| 2026-05-05 19:55 | 42.42696 | 15.32042 | 35011 ft | 484 kts | 135° |
| 2026-05-05 19:56 | 42.38257 | 15.38896 | 35019 ft | 484 kts | 135° |
| 2026-05-05 19:56 | 42.33807 | 15.45752 | 35015 ft | 485 kts | 135° |
| 2026-05-05 19:57 | 42.29372 | 15.52568 | 35018 ft | 487 kts | 135° |
| 2026-05-05 19:57 | 42.24885 | 15.59450 | 35019 ft | 489 kts | 135° |
| 2026-05-05 19:58 | 42.20372 | 15.66354 | 35021 ft | 491 kts | 135° |
| 2026-05-05 19:58 | 42.15833 | 15.73284 | 35026 ft | 493 kts | 135° |
| 2026-05-05 19:59 | 42.11277 | 15.80223 | 35036 ft | 495 kts | 135° |
| 2026-05-05 19:59 | 42.06737 | 15.87122 | 35040 ft | 496 kts | 135° |
| 2026-05-05 20:00 | 42.02153 | 15.94071 | 35040 ft | 496 kts | 135° |
| 2026-05-05 20:00 | 41.97564 | 16.01011 | 35035 ft | 496 kts | 135° |
| 2026-05-05 20:01 | 41.92980 | 16.07927 | 35039 ft | 495 kts | 135° |
| 2026-05-05 20:01 | 41.88394 | 16.14830 | 35043 ft | 495 kts | 135° |
| 2026-05-05 20:02 | 41.83802 | 16.21725 | 35027 ft | 495 kts | 134° |
| 2026-05-05 20:02 | 41.79215 | 16.28599 | 35030 ft | 494 kts | 134° |
| 2026-05-05 20:03 | 41.74663 | 16.35402 | 35030 ft | 493 kts | 134° |
| 2026-05-05 20:03 | 41.70080 | 16.42237 | 35029 ft | 492 kts | 134° |
| 2026-05-05 20:04 | 41.65501 | 16.49049 | 35030 ft | 492 kts | 134° |
| 2026-05-05 20:04 | 41.60921 | 16.55847 | 35035 ft | 491 kts | 134° |
| 2026-05-05 20:05 | 41.56372 | 16.62585 | 35035 ft | 492 kts | 134° |
| 2026-05-05 20:05 | 41.51781 | 16.69368 | 35035 ft | 492 kts | 134° |
| 2026-05-05 20:06 | 41.47185 | 16.76145 | 35039 ft | 493 kts | 134° |
| 2026-05-05 20:06 | 41.42572 | 16.82929 | 35044 ft | 493 kts | 134° |
| 2026-05-05 20:07 | 41.37948 | 16.89715 | 35043 ft | 494 kts | 134° |
| 2026-05-05 20:07 | 41.33344 | 16.96456 | 35044 ft | 495 kts | 134° |
| 2026-05-05 20:08 | 41.28701 | 17.03239 | 35046 ft | 496 kts | 134° |
| 2026-05-05 20:08 | 41.24039 | 17.10035 | 35042 ft | 498 kts | 134° |
| 2026-05-05 20:09 | 41.19366 | 17.16830 | 35046 ft | 498 kts | 134° |
| 2026-05-05 20:09 | 41.14711 | 17.23584 | 35048 ft | 498 kts | 134° |
| 2026-05-05 20:10 | 41.10022 | 17.30373 | 35047 ft | 498 kts | 134° |
| 2026-05-05 20:10 | 41.05327 | 17.37155 | 35050 ft | 498 kts | 134° |
| 2026-05-05 20:11 | 41.00637 | 17.43913 | 35049 ft | 498 kts | 134° |
| 2026-05-05 20:11 | 40.95974 | 17.50618 | 35057 ft | 498 kts | 134° |
| 2026-05-05 20:12 | 40.91283 | 17.57348 | 35060 ft | 497 kts | 134° |
| 2026-05-05 20:12 | 40.86575 | 17.64087 | 35065 ft | 497 kts | 134° |
| 2026-05-05 20:13 | 40.81877 | 17.70797 | 35064 ft | 497 kts | 134° |
| 2026-05-05 20:13 | 40.77177 | 17.77494 | 35072 ft | 497 kts | 134° |
| 2026-05-05 20:14 | 40.72503 | 17.84142 | 35075 ft | 497 kts | 134° |
| 2026-05-05 20:14 | 40.67794 | 17.90824 | 35077 ft | 497 kts | 134° |
| 2026-05-05 20:15 | 40.63080 | 17.97500 | 35074 ft | 497 kts | 134° |
| 2026-05-05 20:15 | 40.58686 | 18.04457 | 35097 ft | 497 kts | 126° |
| 2026-05-05 20:16 | 40.54668 | 18.11870 | 35068 ft | 498 kts | 125° |
| 2026-05-05 20:16 | 40.50632 | 18.19339 | 35086 ft | 498 kts | 125° |
| 2026-05-05 20:17 | 40.46608 | 18.26686 | 35084 ft | 498 kts | 126° |
| 2026-05-05 20:17 | 40.42538 | 18.34055 | 35083 ft | 498 kts | 126° |
| 2026-05-05 20:18 | 40.38470 | 18.41400 | 35097 ft | 498 kts | 126° |
| 2026-05-05 20:18 | 40.34384 | 18.48762 | 35084 ft | 498 kts | 126° |
| 2026-05-05 20:19 | 40.30309 | 18.56091 | 35100 ft | 498 kts | 126° |
| 2026-05-05 20:19 | 40.26251 | 18.63373 | 35084 ft | 498 kts | 126° |
| 2026-05-05 20:20 | 40.22169 | 18.70682 | 35086 ft | 497 kts | 126° |
| 2026-05-05 20:20 | 40.18061 | 18.78018 | 35108 ft | 497 kts | 126° |
| 2026-05-05 20:21 | 40.13962 | 18.85322 | 35091 ft | 498 kts | 126° |
| 2026-05-05 20:21 | 40.09893 | 18.92559 | 35097 ft | 498 kts | 126° |
| 2026-05-05 20:22 | 40.05782 | 18.99852 | 35111 ft | 498 kts | 126° |
| 2026-05-05 20:22 | 40.01678 | 19.07133 | 35102 ft | 498 kts | 126° |
| 2026-05-05 20:23 | 39.97569 | 19.14426 | 35100 ft | 499 kts | 126° |
| 2026-05-05 20:23 | 39.93474 | 19.21679 | 35107 ft | 499 kts | 126° |
| 2026-05-05 20:24 | 39.89360 | 19.28947 | 35107 ft | 499 kts | 126° |
| 2026-05-05 20:24 | 39.85232 | 19.36221 | 35102 ft | 499 kts | 126° |
| 2026-05-05 20:25 | 39.81105 | 19.43476 | 35097 ft | 499 kts | 126° |
| 2026-05-05 20:25 | 39.76966 | 19.50737 | 35102 ft | 499 kts | 126° |
| 2026-05-05 20:26 | 39.73526 | 19.56759 | 35100 ft | 499 kts | 126° |
| 2026-05-05 20:26 | 39.69380 | 19.64001 | 35116 ft | 499 kts | 126° |
| 2026-05-05 20:27 | 39.65231 | 19.71232 | 35100 ft | 499 kts | 126° |
| 2026-05-05 20:27 | 39.61106 | 19.78405 | 35105 ft | 499 kts | 126° |
| 2026-05-05 20:28 | 39.56948 | 19.85619 | 35101 ft | 499 kts | 126° |
| 2026-05-05 20:28 | 39.52787 | 19.92824 | 35108 ft | 499 kts | 127° |
| 2026-05-05 20:29 | 39.48628 | 20.00010 | 35100 ft | 499 kts | 127° |
| 2026-05-05 20:29 | 39.44471 | 20.07183 | 35104 ft | 498 kts | 126° |
| 2026-05-05 20:30 | 39.40574 | 20.14595 | 35120 ft | 497 kts | 122° |
| 2026-05-05 20:30 | 39.36828 | 20.22127 | 35112 ft | 497 kts | 122° |
| 2026-05-05 20:31 | 39.33071 | 20.29572 | 35118 ft | 497 kts | 123° |
| 2026-05-05 20:31 | 39.29254 | 20.37037 | 35112 ft | 498 kts | 123° |
| 2026-05-05 20:32 | 39.25433 | 20.44492 | 35130 ft | 497 kts | 123° |
| 2026-05-05 20:32 | 39.21643 | 20.51896 | 35128 ft | 497 kts | 123° |
| 2026-05-05 20:33 | 39.17822 | 20.59352 | 35125 ft | 498 kts | 123° |
| 2026-05-05 20:33 | 39.13992 | 20.66811 | 35130 ft | 499 kts | 123° |
| 2026-05-05 20:34 | 39.10155 | 20.74262 | 35129 ft | 498 kts | 123° |
| 2026-05-05 20:34 | 39.06340 | 20.81654 | 35127 ft | 499 kts | 123° |
| 2026-05-05 20:35 | 39.02502 | 20.89077 | 35144 ft | 498 kts | 123° |
| 2026-05-05 20:35 | 38.98650 | 20.96507 | 35129 ft | 499 kts | 123° |
| 2026-05-05 20:36 | 38.94794 | 21.03925 | 35133 ft | 498 kts | 123° |
| 2026-05-05 20:36 | 38.90930 | 21.11345 | 35134 ft | 498 kts | 123° |
| 2026-05-05 20:37 | 38.87096 | 21.18691 | 35139 ft | 498 kts | 123° |
| 2026-05-05 20:37 | 38.83227 | 21.26090 | 35142 ft | 498 kts | 123° |
| 2026-05-05 20:38 | 38.79383 | 21.33423 | 35115 ft | 486 kts | 123° |
| 2026-05-05 20:38 | 38.77523 | 21.36967 | 35111 ft | 472 kts | 123° |
| 2026-05-05 20:38 | 38.75715 | 21.40405 | 35113 ft | 458 kts | 123° |
| 2026-05-05 20:38 | 38.73957 | 21.43750 | 35109 ft | 445 kts | 123° |
| 2026-05-05 20:39 | 38.72250 | 21.46991 | 35025 ft | 435 kts | 123° |
| 2026-05-05 20:39 | 38.70551 | 21.50214 | 34400 ft | 440 kts | 122° |
| 2026-05-05 20:39 | 38.68800 | 21.53529 | 33165 ft | 459 kts | 122° |
| 2026-05-05 20:39 | 38.66993 | 21.56947 | 32158 ft | 472 kts | 123° |
| 2026-05-05 20:40 | 38.65170 | 21.60382 | 31893 ft | 465 kts | 123° |
| 2026-05-05 20:40 | 38.63357 | 21.63797 | 31524 ft | 463 kts | 123° |
| 2026-05-05 20:40 | 38.61528 | 21.67241 | 31094 ft | 473 kts | 123° |
| 2026-05-05 20:40 | 38.59672 | 21.70734 | 30662 ft | 479 kts | 123° |
| 2026-05-05 20:41 | 38.57793 | 21.74267 | 30210 ft | 476 kts | 123° |
| 2026-05-05 20:41 | 38.55934 | 21.77758 | 29699 ft | 473 kts | 123° |
| 2026-05-05 20:41 | 38.54087 | 21.81222 | 29226 ft | 469 kts | 123° |
| 2026-05-05 20:41 | 38.52279 | 21.84610 | 28781 ft | 465 kts | 123° |
| 2026-05-05 20:42 | 38.50461 | 21.88007 | 28326 ft | 460 kts | 123° |
| 2026-05-05 20:42 | 38.48661 | 21.91359 | 27921 ft | 455 kts | 123° |
| 2026-05-05 20:42 | 38.46877 | 21.94681 | 27462 ft | 452 kts | 123° |
| 2026-05-05 20:42 | 38.45108 | 21.97970 | 27030 ft | 449 kts | 123° |
| 2026-05-05 20:43 | 38.43344 | 22.01249 | 26593 ft | 446 kts | 123° |
| 2026-05-05 20:43 | 38.41595 | 22.04499 | 26173 ft | 443 kts | 123° |
| 2026-05-05 20:43 | 38.39854 | 22.07731 | 25743 ft | 441 kts | 123° |
| 2026-05-05 20:43 | 38.38121 | 22.10945 | 25316 ft | 438 kts | 123° |
| 2026-05-05 20:44 | 38.36402 | 22.14131 | 24901 ft | 435 kts | 123° |
| 2026-05-05 20:44 | 38.34707 | 22.17269 | 24489 ft | 432 kts | 123° |
| 2026-05-05 20:44 | 38.33005 | 22.20416 | 24068 ft | 430 kts | 123° |
| 2026-05-05 20:44 | 38.31311 | 22.23545 | 23648 ft | 428 kts | 123° |
| 2026-05-05 20:45 | 38.27947 | 22.29748 | 22725 ft | 422 kts | 123° |
| 2026-05-05 20:45 | 38.26282 | 22.32815 | 22293 ft | 419 kts | 123° |
| 2026-05-05 20:45 | 38.24632 | 22.35853 | 21871 ft | 415 kts | 123° |
| 2026-05-05 20:46 | 38.22996 | 22.38862 | 21459 ft | 412 kts | 123° |
| 2026-05-05 20:46 | 38.21369 | 22.41854 | 21043 ft | 409 kts | 123° |
| 2026-05-05 20:46 | 38.19755 | 22.44818 | 20633 ft | 407 kts | 123° |
| 2026-05-05 20:46 | 38.18150 | 22.47763 | 20229 ft | 404 kts | 123° |
| 2026-05-05 20:47 | 38.16553 | 22.50691 | 19825 ft | 402 kts | 123° |
| 2026-05-05 20:47 | 38.14982 | 22.53570 | 19422 ft | 399 kts | 123° |
| 2026-05-05 20:47 | 38.13401 | 22.56463 | 19021 ft | 397 kts | 123° |
| 2026-05-05 20:47 | 38.11828 | 22.59342 | 18603 ft | 396 kts | 123° |
| 2026-05-05 20:48 | 38.10260 | 22.62207 | 18170 ft | 394 kts | 123° |
| 2026-05-05 20:48 | 38.08699 | 22.65058 | 17722 ft | 390 kts | 123° |
| 2026-05-05 20:48 | 38.07160 | 22.67865 | 17301 ft | 386 kts | 123° |
| 2026-05-05 20:48 | 38.05631 | 22.70649 | 16898 ft | 383 kts | 123° |
| 2026-05-05 20:49 | 38.04116 | 22.73414 | 16501 ft | 380 kts | 123° |
| 2026-05-05 20:49 | 38.02615 | 22.76153 | 16096 ft | 377 kts | 123° |
| 2026-05-05 20:49 | 38.01124 | 22.78874 | 15716 ft | 374 kts | 123° |
| 2026-05-05 20:49 | 37.99663 | 22.81538 | 15332 ft | 371 kts | 123° |
| 2026-05-05 20:50 | 37.98190 | 22.84224 | 14942 ft | 369 kts | 123° |
| 2026-05-05 20:50 | 37.96726 | 22.86889 | 14559 ft | 366 kts | 123° |
| 2026-05-05 20:50 | 37.95280 | 22.89518 | 14164 ft | 360 kts | 123° |
| 2026-05-05 20:50 | 37.93860 | 22.92096 | 13771 ft | 352 kts | 123° |
| 2026-05-05 20:51 | 37.92568 | 22.94689 | 13440 ft | 344 kts | 114° |
| 2026-05-05 20:51 | 37.91614 | 22.97422 | 13211 ft | 337 kts | 110° |
| 2026-05-05 20:51 | 37.90740 | 23.00162 | 12880 ft | 334 kts | 109° |
| 2026-05-05 20:51 | 37.89877 | 23.02889 | 12503 ft | 333 kts | 109° |
| 2026-05-05 20:52 | 37.89005 | 23.05603 | 12141 ft | 331 kts | 110° |
| 2026-05-05 20:52 | 37.88140 | 23.08253 | 11768 ft | 329 kts | 110° |
| 2026-05-05 20:52 | 37.87259 | 23.10923 | 11405 ft | 327 kts | 110° |
| 2026-05-05 20:52 | 37.86378 | 23.13573 | 11046 ft | 326 kts | 110° |
| 2026-05-05 20:53 | 37.85498 | 23.16210 | 10673 ft | 322 kts | 110° |
| 2026-05-05 20:53 | 37.84638 | 23.18779 | 10496 ft | 310 kts | 110° |
| 2026-05-05 20:53 | 37.83811 | 23.21249 | 10303 ft | 299 kts | 110° |
| 2026-05-05 20:53 | 37.83013 | 23.23624 | 10159 ft | 287 kts | 110° |
| 2026-05-05 20:54 | 37.82258 | 23.25871 | 10044 ft | 275 kts | 110° |
| 2026-05-05 20:54 | 37.81518 | 23.28077 | 9795 ft | 273 kts | 110° |
| 2026-05-05 20:54 | 37.80776 | 23.30289 | 9508 ft | 272 kts | 110° |
| 2026-05-05 20:54 | 37.80040 | 23.32479 | 9227 ft | 270 kts | 110° |
| 2026-05-05 20:55 | 37.79304 | 23.34666 | 8942 ft | 270 kts | 110° |
| 2026-05-05 20:55 | 37.78571 | 23.36843 | 8660 ft | 268 kts | 110° |
| 2026-05-05 20:55 | 37.77840 | 23.39012 | 8382 ft | 267 kts | 110° |
| 2026-05-05 20:55 | 37.77113 | 23.41167 | 8104 ft | 266 kts | 110° |
| 2026-05-05 20:56 | 37.76499 | 23.43364 | 7815 ft | 263 kts | 98° |
| 2026-05-05 20:56 | 37.76287 | 23.45626 | 7584 ft | 263 kts | 92° |
| 2026-05-05 20:56 | 37.76144 | 23.47922 | 7443 ft | 259 kts | 92° |
| 2026-05-05 20:56 | 37.75991 | 23.50183 | 7316 ft | 255 kts | 93° |
| 2026-05-05 20:57 | 37.75827 | 23.52394 | 7189 ft | 250 kts | 93° |
| 2026-05-05 20:57 | 37.75662 | 23.54563 | 7010 ft | 248 kts | 93° |
| 2026-05-05 20:57 | 37.75494 | 23.56742 | 6753 ft | 249 kts | 93° |
| 2026-05-05 20:57 | 37.75320 | 23.58917 | 6504 ft | 248 kts | 93° |
| 2026-05-05 20:58 | 37.75148 | 23.61053 | 6242 ft | 247 kts | 94° |
| 2026-05-05 20:58 | 37.74974 | 23.63211 | 5979 ft | 246 kts | 94° |
| 2026-05-05 20:58 | 37.74801 | 23.65359 | 5722 ft | 245 kts | 94° |
| 2026-05-05 20:58 | 37.74627 | 23.67503 | 5461 ft | 244 kts | 94° |
| 2026-05-05 20:59 | 37.74453 | 23.69641 | 5207 ft | 244 kts | 94° |
| 2026-05-05 20:59 | 37.74281 | 23.71748 | 5073 ft | 235 kts | 94° |
| 2026-05-05 20:59 | 37.74114 | 23.73789 | 4786 ft | 231 kts | 94° |
| 2026-05-05 20:59 | 37.74014 | 23.75784 | 4535 ft | 224 kts | 81° |
| 2026-05-05 21:00 | 37.74643 | 23.77478 | 4322 ft | 209 kts | 43° |
| 2026-05-05 21:00 | 37.75732 | 23.78632 | 4123 ft | 206 kts | 35° |
| 2026-05-05 21:00 | 37.76878 | 23.79697 | 3890 ft | 203 kts | 34° |
| 2026-05-05 21:00 | 37.78007 | 23.80737 | 3673 ft | 199 kts | 33° |
| 2026-05-05 21:01 | 37.79132 | 23.81723 | 3519 ft | 197 kts | 33° |
| 2026-05-05 21:01 | 37.80259 | 23.82761 | 3283 ft | 202 kts | 35° |
| 2026-05-05 21:01 | 37.81390 | 23.83835 | 3021 ft | 204 kts | 35° |
| 2026-05-05 21:01 | 37.82528 | 23.84924 | 2759 ft | 208 kts | 35° |
| 2026-05-05 21:02 | 37.83682 | 23.86029 | 2469 ft | 206 kts | 35° |
| 2026-05-05 21:02 | 37.84805 | 23.87104 | 2171 ft | 197 kts | 35° |
| 2026-05-05 21:02 | 37.85853 | 23.88107 | 1924 ft | 186 kts | 35° |
| 2026-05-05 21:02 | 37.86865 | 23.89074 | 1694 ft | 178 kts | 35° |
| 2026-05-05 21:03 | 37.87823 | 23.89990 | 1492 ft | 164 kts | 35° |
| 2026-05-05 21:03 | 37.88697 | 23.90827 | 1290 ft | 154 kts | 36° |
| 2026-05-05 21:03 | 37.89557 | 23.91648 | 1043 ft | 152 kts | 36° |
| 2026-05-05 21:03 | 37.90389 | 23.92444 | 830 ft | 147 kts | 36° |
| 2026-05-05 21:04 | 37.91201 | 23.93219 | 646 ft | 146 kts | 36° |
| 2026-05-05 21:04 | 37.92014 | 23.93997 | 453 ft | 147 kts | 37° |
| 2026-05-05 21:04 | 37.92824 | 23.94771 | 307 ft | 139 kts | 36° |
| 2026-05-05 21:04 | 37.93483 | 23.95397 | 283 ft | 90 kts | 37° |
| 2026-05-05 21:05 | 37.93819 | 23.95695 | 278 ft | 29 kts | 14° |
| 2026-05-05 21:05 | 37.93952 | 23.95723 | 284 ft | 18 kts | 7° |
| 2026-05-05 21:05 | 37.94046 | 23.95686 | 294 ft | 14 kts | 281° |
| 2026-05-05 21:05 | 37.93983 | 23.95597 | 298 ft | 14 kts | 217° |
| 2026-05-05 21:06 | 37.93908 | 23.95525 | 297 ft | 13 kts | 218° |
| 2026-05-05 21:06 | 37.93836 | 23.95457 | 296 ft | 13 kts | 216° |
| 2026-05-05 21:06 | 37.93765 | 23.95391 | 297 ft | 12 kts | 217° |
| 2026-05-05 21:06 | 37.93697 | 23.95325 | 297 ft | 12 kts | 218° |
| 2026-05-05 21:07 | 37.93648 | 23.95245 | 297 ft | 12 kts | 271° |
| 2026-05-05 21:07 | 37.93689 | 23.95158 | 299 ft | 12 kts | 307° |
| 2026-05-05 21:07 | 37.93747 | 23.95108 | 301 ft | 10 kts | 7° |
| 2026-05-05 21:07 | 37.93792 | 23.95130 | 301 ft | 6 kts | 339° |
| 2026-05-05 21:08 | 37.93818 | 23.95090 | 300 ft | 6 kts | 307° |
| 2026-05-05 21:08 | 37.93835 | 23.95061 | 300 ft | 0 kts | 307° |